createdAt,value
2022-12-18T00:00:06.772Z,28.67
2022-12-18T00:03:01.037Z,27.88
2022-12-18T00:05:28.916Z,22.67
2022-12-18T00:07:56.098Z,25.83
2022-12-18T00:10:23.696Z,23.13
2022-12-18T00:12:51.318Z,26.55
2022-12-18T00:15:18.925Z,25.52
2022-12-18T00:17:46.050Z,27.55
2022-12-18T00:20:15.836Z,28.65
2022-12-18T00:22:42.983Z,28.48
2022-12-18T00:25:10.593Z,27.88
2022-12-18T00:27:37.793Z,28.25
2022-12-18T00:30:06.032Z,26.75
2022-12-18T00:32:33.943Z,27.92
2022-12-18T00:35:03.265Z,27.42
2022-12-18T00:37:31.963Z,27.33
2022-12-18T00:39:59.478Z,28.92
2022-12-18T00:42:45.114Z,24.55
2022-12-18T00:45:13.375Z,26.65
2022-12-18T00:47:40.991Z,26.50
2022-12-18T00:50:09.402Z,26.23
2022-12-18T00:52:36.682Z,25.38
2022-12-18T00:55:06.597Z,26.77
2022-12-18T00:57:34.007Z,21.08
2022-12-18T01:00:01.741Z,23.83
2022-12-18T01:02:29.429Z,26.05
2022-12-18T01:04:57.008Z,24.77
2022-12-18T01:07:24.189Z,25.27
2022-12-18T01:09:51.774Z,29.67
2022-12-18T01:12:19.346Z,25.85
2022-12-18T01:14:46.977Z,24.50
2022-12-18T01:17:15.686Z,21.67
2022-12-18T01:19:43.270Z,27.60
2022-12-18T01:22:11.148Z,26.83
2022-12-18T01:24:39.115Z,24.10
2022-12-18T01:27:06.432Z,23.13
2022-12-18T01:29:34.494Z,27.52
2022-12-18T01:32:01.764Z,25.30
2022-12-18T01:34:31.155Z,21.80
2022-12-18T01:36:58.362Z,23.80
2022-12-18T01:39:25.946Z,26.70
2022-12-18T01:42:05.319Z,26.98
2022-12-18T01:45:03.826Z,16.02
2022-12-18T01:47:48.672Z,18.55
2022-12-18T01:50:31.112Z,21.48
2022-12-18T01:53:03.557Z,24.02
2022-12-18T01:55:36.183Z,22.77
2022-12-18T01:58:04.724Z,21.73
2022-12-18T02:00:32.316Z,23.15
2022-12-18T02:02:59.618Z,21.30
2022-12-18T02:06:06.708Z,21.27
2022-12-18T02:08:37.792Z,25.90
2022-12-18T02:11:05.548Z,26.25
2022-12-18T02:13:48.415Z,20.30
2022-12-18T02:16:31.889Z,23.05
2022-12-18T02:19:17.244Z,24.65
2022-12-18T02:22:09.824Z,22.70
2022-12-18T02:25:06.095Z,21.65
2022-12-18T02:27:36.459Z,21.67
2022-12-18T02:30:06.205Z,22.13
2022-12-18T02:32:41.386Z,26.40
2022-12-18T02:35:14.987Z,17.47
2022-12-18T02:37:46.380Z,20.52
2022-12-18T02:40:16.495Z,22.15
2022-12-18T02:42:44.226Z,21.00
2022-12-18T02:45:14.428Z,21.02
2022-12-18T02:47:47.114Z,18.92
2022-12-18T02:50:52.711Z,21.77
2022-12-18T02:53:33.532Z,18.10
2022-12-18T02:56:17.923Z,20.02
2022-12-18T02:59:07.468Z,20.33
2022-12-18T03:02:27.605Z,19.40
2022-12-18T03:05:07.363Z,19.90
2022-12-18T03:07:41.032Z,15.95
2022-12-18T03:10:17.277Z,17.52
2022-12-18T03:13:03.072Z,18.58
2022-12-18T03:15:46.739Z,21.42
2022-12-18T03:18:21.184Z,20.45
2022-12-18T03:20:52.684Z,19.20
2022-12-18T03:23:30.187Z,17.80
2022-12-18T03:26:07.466Z,18.70
2022-12-18T03:28:43.382Z,16.95
2022-12-18T03:31:14.246Z,20.33
2022-12-18T03:33:53.718Z,12.73
2022-12-18T03:36:25.030Z,17.83
2022-12-18T03:38:52.933Z,18.90
2022-12-18T03:41:25.172Z,18.27
2022-12-18T03:44:27.729Z,20.58
2022-12-18T03:47:02.070Z,21.10
2022-12-18T03:49:51.753Z,18.90
2022-12-18T03:52:37.404Z,20.65
2022-12-18T03:55:08.252Z,17.30
2022-12-18T03:57:37.086Z,17.02
2022-12-18T04:00:13.140Z,18.48
2022-12-18T04:02:58.141Z,19.50
2022-12-18T04:05:36.116Z,18.55
2022-12-18T04:08:04.332Z,17.45
2022-12-18T04:10:38.663Z,17.67
2022-12-18T04:13:06.249Z,18.38
2022-12-18T04:15:36.403Z,18.95
2022-12-18T04:18:05.560Z,18.88
2022-12-18T04:20:40.071Z,18.23
2022-12-18T04:23:09.440Z,17.77
2022-12-18T04:25:37.854Z,16.42
2022-12-18T04:28:09.081Z,17.75
2022-12-18T04:30:38.521Z,16.45
2022-12-18T04:33:14.179Z,13.25
2022-12-18T04:35:42.264Z,20.50
2022-12-18T04:38:11.091Z,22.60
2022-12-18T04:40:39.522Z,16.83
2022-12-18T04:43:15.467Z,20.17
2022-12-18T04:45:42.712Z,20.67
2022-12-18T04:48:10.353Z,21.75
2022-12-18T04:50:38.034Z,19.38
2022-12-18T04:53:05.669Z,11.70
2022-12-18T04:55:32.876Z,17.83
2022-12-18T04:58:00.475Z,18.17
2022-12-18T05:00:27.759Z,25.08
2022-12-18T05:02:55.893Z,19.20
2022-12-18T05:05:23.312Z,21.92
2022-12-18T05:07:50.819Z,12.27
2022-12-18T05:10:18.114Z,19.02
2022-12-18T05:13:00.063Z,21.88
2022-12-18T05:15:30.567Z,19.02
2022-12-18T05:17:59.719Z,16.23
2022-12-18T05:20:28.460Z,16.77
2022-12-18T05:22:57.008Z,20.27
2022-12-18T05:25:24.508Z,17.90
2022-12-18T05:27:52.044Z,14.15
2022-12-18T05:30:19.201Z,20.85
2022-12-18T05:32:48.915Z,14.52
2022-12-18T05:35:16.193Z,16.98
2022-12-18T05:37:43.805Z,18.60
2022-12-18T05:40:12.067Z,14.75
2022-12-18T05:42:40.137Z,17.23
2022-12-18T05:45:07.875Z,18.48
2022-12-18T05:47:35.406Z,18.88
2022-12-18T05:50:02.701Z,17.23
2022-12-18T05:52:31.448Z,21.20
2022-12-18T05:55:00.141Z,21.05
2022-12-18T05:57:27.719Z,21.50
2022-12-18T05:59:54.985Z,15.32
2022-12-18T06:02:22.678Z,22.73
2022-12-18T06:04:50.036Z,22.33
2022-12-18T06:07:17.492Z,21.40
2022-12-18T06:09:44.855Z,14.35
2022-12-18T06:12:12.384Z,19.88
2022-12-18T06:14:40.084Z,20.58
2022-12-18T06:17:07.940Z,17.88
2022-12-18T06:19:35.186Z,16.67
2022-12-18T06:22:02.698Z,19.05
2022-12-18T06:24:30.783Z,16.75
2022-12-18T06:26:58.357Z,20.40
2022-12-18T06:29:25.620Z,19.63
2022-12-18T06:31:53.230Z,13.80
2022-12-18T06:34:20.506Z,18.35
2022-12-18T06:36:47.970Z,18.77
2022-12-18T06:39:15.273Z,17.70
2022-12-18T06:41:42.752Z,19.65
2022-12-18T06:44:09.936Z,14.48
2022-12-18T06:46:39.160Z,21.77
2022-12-18T06:49:06.408Z,21.85
2022-12-18T06:51:33.926Z,21.73
2022-12-18T06:54:01.323Z,19.33
2022-12-18T06:56:29.275Z,20.65
2022-12-18T06:58:56.467Z,20.10
2022-12-18T07:01:24.182Z,31.48
2022-12-18T07:03:56.274Z,22.92
2022-12-18T07:06:26.249Z,23.25
2022-12-18T07:08:55.196Z,22.45
2022-12-18T07:11:23.188Z,18.35
2022-12-18T07:13:50.500Z,20.40
2022-12-18T07:16:24.632Z,15.73
2022-12-18T07:18:53.698Z,20.08
2022-12-18T07:21:21.739Z,17.67
2022-12-18T07:23:49.389Z,16.95
2022-12-18T07:26:19.792Z,16.88
2022-12-18T07:28:47.430Z,17.90
2022-12-18T07:31:21.470Z,17.02
2022-12-18T07:33:49.802Z,23.10
2022-12-18T07:36:17.650Z,23.60
2022-12-18T07:38:48.316Z,28.70
2022-12-18T07:41:16.363Z,25.35
2022-12-18T07:43:43.941Z,28.67
2022-12-18T07:46:14.967Z,24.30
2022-12-18T07:48:46.286Z,23.20
2022-12-18T07:51:18.855Z,20.02
2022-12-18T07:53:46.327Z,22.27
2022-12-18T07:56:31.785Z,25.77
2022-12-18T07:59:00.421Z,20.55
2022-12-18T08:01:31.205Z,19.02
2022-12-18T08:03:59.127Z,23.42
2022-12-18T08:06:27.191Z,26.25
2022-12-18T08:08:55.879Z,32.28
2022-12-18T08:11:25.930Z,33.60
2022-12-18T08:13:54.063Z,38.30
2022-12-18T08:16:23.082Z,46.10
2022-12-18T08:18:50.583Z,57.17
2022-12-18T08:21:23.073Z,66.25
2022-12-18T08:23:52.053Z,74.60
2022-12-18T08:26:21.061Z,56.13
2022-12-18T08:28:51.012Z,49.17
2022-12-18T08:31:20.307Z,49.40
2022-12-18T08:33:51.431Z,53.78
2022-12-18T08:36:20.289Z,57.05
2022-12-18T08:38:47.954Z,59.05
2022-12-18T08:41:17.925Z,67.78
2022-12-18T08:44:04.399Z,98.57
2022-12-18T08:46:41.128Z,122.28
2022-12-18T08:49:09.794Z,130.02
2022-12-18T08:51:37.647Z,97.40
2022-12-18T08:54:06.490Z,93.60
2022-12-18T08:56:35.309Z,114.22
2022-12-18T08:59:03.431Z,133.02
2022-12-18T09:01:31.321Z,102.43
2022-12-18T09:03:59.314Z,94.70
2022-12-18T09:06:27.765Z,74.10
2022-12-18T09:08:55.123Z,70.68
2022-12-18T09:11:27.222Z,77.47
2022-12-18T09:13:55.914Z,70.47
2022-12-18T09:16:30.325Z,58.72
2022-12-18T09:19:00.945Z,47.70
2022-12-18T09:21:31.206Z,54.88
2022-12-18T09:24:00.256Z,52.15
2022-12-18T09:26:28.430Z,54.75
2022-12-18T09:28:56.863Z,59.03
2022-12-18T09:31:25.869Z,53.75
2022-12-18T09:33:53.309Z,52.67
2022-12-18T09:36:21.028Z,44.67
2022-12-18T09:38:49.154Z,41.80
2022-12-18T09:41:38.622Z,48.13
2022-12-18T09:44:47.597Z,48.75
2022-12-18T09:47:24.942Z,41.08
2022-12-18T09:49:56.282Z,38.28
2022-12-18T09:52:48.372Z,32.70
2022-12-18T09:55:39.308Z,34.42
2022-12-18T09:58:31.964Z,32.17
2022-12-18T10:00:59.906Z,29.10
2022-12-18T10:03:27.952Z,33.88
2022-12-18T10:06:14.849Z,38.75
2022-12-18T10:09:04.157Z,32.38
2022-12-18T10:11:41.252Z,23.58
2022-12-18T10:14:08.922Z,48.55
2022-12-18T10:16:53.172Z,26.17
2022-12-18T10:19:36.340Z,28.45
2022-12-18T10:22:12.266Z,74.55
2022-12-18T10:24:57.944Z,26.83
2022-12-18T10:27:28.594Z,24.02
2022-12-18T10:29:57.019Z,21.00
2022-12-18T10:32:27.564Z,25.52
2022-12-18T10:35:01.232Z,23.98
2022-12-18T10:37:38.871Z,21.67
2022-12-18T10:40:16.849Z,20.52
2022-12-18T10:42:47.470Z,21.75
2022-12-18T10:45:18.693Z,22.88
2022-12-18T10:47:50.991Z,25.00
2022-12-18T10:51:08.652Z,21.83
2022-12-18T10:53:28.922Z,24.92
2022-12-18T10:56:03.396Z,34.30
2022-12-18T10:58:38.439Z,26.15
2022-12-18T11:01:17.643Z,25.80
2022-12-18T11:04:02.628Z,27.40
2022-12-18T11:06:33.791Z,23.38
2022-12-18T11:09:12.272Z,22.60
2022-12-18T11:11:42.222Z,20.15
2022-12-18T11:14:22.333Z,23.70
2022-12-18T11:19:42.548Z,27.75
2022-12-18T11:22:31.940Z,24.02
2022-12-18T11:25:32.194Z,22.75
2022-12-18T11:28:28.821Z,19.88
2022-12-18T11:31:15.026Z,23.00
2022-12-18T11:36:39.417Z,23.08
2022-12-18T11:39:18.391Z,22.08
2022-12-18T11:42:10.823Z,22.55
2022-12-18T11:44:50.345Z,22.85
2022-12-18T11:47:32.022Z,23.58
2022-12-18T11:50:02.731Z,26.77
2022-12-18T11:52:39.377Z,25.27
2022-12-18T11:55:31.545Z,21.98
2022-12-18T11:58:10.746Z,23.52
2022-12-18T12:00:50.165Z,27.50
2022-12-18T12:03:37.826Z,26.45
2022-12-18T12:06:48.486Z,28.17
2022-12-18T12:09:42.291Z,24.50
2022-12-18T12:12:29.476Z,22.42
2022-12-18T12:15:04.741Z,24.50
2022-12-18T12:17:42.288Z,27.60
2022-12-18T12:20:38.008Z,27.27
2022-12-18T12:23:27.479Z,29.30
2022-12-18T12:26:18.105Z,31.65
2022-12-18T12:28:45.794Z,35.03
2022-12-18T12:31:28.440Z,28.42
2022-12-18T12:34:24.891Z,31.30
2022-12-18T12:37:12.905Z,36.88
2022-12-18T12:39:43.692Z,28.63
2022-12-18T12:43:04.122Z,31.20
2022-12-18T12:45:48.674Z,30.65
2022-12-18T12:48:47.689Z,37.85
2022-12-18T12:51:20.981Z,38.28
2022-12-18T12:53:50.149Z,37.80
2022-12-18T12:56:20.871Z,33.53
2022-12-18T12:59:16.385Z,30.42
2022-12-18T13:02:06.346Z,35.88
2022-12-18T13:05:01.080Z,35.20
2022-12-18T13:08:02.630Z,39.72
2022-12-18T13:10:32.532Z,34.20
2022-12-18T13:13:04.288Z,39.72
2022-12-18T13:15:44.331Z,34.10
2022-12-18T13:18:25.139Z,35.28
2022-12-18T13:20:59.853Z,38.47
2022-12-18T13:23:33.645Z,32.65
2022-12-18T13:26:24.687Z,29.30
2022-12-18T13:28:58.431Z,31.70
2022-12-18T13:31:40.897Z,34.65
2022-12-18T13:34:27.706Z,35.40
2022-12-18T13:37:17.857Z,32.78
2022-12-18T13:39:45.776Z,33.53
2022-12-18T13:42:33.203Z,35.15
2022-12-18T13:45:01.763Z,33.25
2022-12-18T13:47:34.736Z,34.55
2022-12-18T13:50:11.053Z,33.47
2022-12-18T13:52:40.920Z,38.20
2022-12-18T13:55:17.721Z,36.35
2022-12-18T13:57:47.551Z,42.47
2022-12-18T14:00:18.676Z,46.95
2022-12-18T14:02:47.709Z,42.60
2022-12-18T14:05:35.658Z,42.45
2022-12-18T14:08:07.456Z,33.50
2022-12-18T14:10:47.794Z,36.83
2022-12-18T14:13:30.262Z,46.78
2022-12-18T14:16:01.756Z,44.33
2022-12-18T14:18:44.869Z,30.33
2022-12-18T14:21:30.633Z,40.33
2022-12-18T14:24:21.947Z,28.83
2022-12-18T14:26:51.518Z,35.22
2022-12-18T14:29:29.705Z,30.95
2022-12-18T14:32:27.044Z,39.17
2022-12-18T14:34:55.560Z,35.78
2022-12-18T14:37:29.303Z,37.92
2022-12-18T14:40:07.293Z,29.80
2022-12-18T14:42:36.588Z,31.08
2022-12-18T14:45:43.539Z,37.42
2022-12-18T14:48:37.351Z,34.35
2022-12-18T14:51:17.977Z,25.60
2022-12-18T14:53:53.683Z,32.60
2022-12-18T14:56:21.528Z,29.63
2022-12-18T14:58:57.947Z,29.77
2022-12-18T15:01:36.385Z,28.65
2022-12-18T15:04:06.857Z,29.02
2022-12-18T15:06:37.441Z,31.52
2022-12-18T15:09:22.857Z,32.83
2022-12-18T15:11:51.547Z,30.98
2022-12-18T15:14:31.748Z,33.95
2022-12-18T15:17:01.691Z,32.65
2022-12-18T15:19:41.836Z,33.38
2022-12-18T15:22:24.043Z,29.55
2022-12-18T15:24:52.315Z,28.60
2022-12-18T15:27:36.938Z,30.95
2022-12-18T15:30:11.159Z,29.90
2022-12-18T15:32:39.448Z,28.00
2022-12-18T15:35:10.124Z,31.55
2022-12-18T15:37:40.191Z,29.67
2022-12-18T15:40:21.715Z,29.33
2022-12-18T15:43:08.600Z,28.60
2022-12-18T15:45:36.652Z,28.67
2022-12-18T15:48:22.080Z,28.73
2022-12-18T15:50:56.671Z,26.80
2022-12-18T15:53:32.103Z,28.38
2022-12-18T15:56:18.516Z,28.48
2022-12-18T15:58:45.947Z,24.15
2022-12-18T16:01:14.287Z,28.10
2022-12-18T16:03:42.211Z,31.83
2022-12-18T16:06:10.489Z,54.33
2022-12-18T16:08:37.953Z,68.75
2022-12-18T16:11:10.722Z,60.38
2022-12-18T16:13:38.232Z,52.40
2022-12-18T16:16:07.141Z,54.17
2022-12-18T16:18:34.766Z,49.67
2022-12-18T16:21:02.737Z,43.45
2022-12-18T16:23:30.040Z,37.33
2022-12-18T16:25:57.891Z,33.95
2022-12-18T16:28:25.451Z,30.25
2022-12-18T16:30:53.351Z,33.17
2022-12-18T16:33:20.795Z,33.03
2022-12-18T16:35:53.304Z,31.88
2022-12-18T16:38:21.056Z,32.90
2022-12-18T16:41:08.132Z,37.33
2022-12-18T16:46:04.347Z,29.77
2022-12-18T16:48:31.836Z,33.53
2022-12-18T16:51:04.170Z,34.67
2022-12-18T16:53:34.518Z,32.78
2022-12-18T16:56:03.019Z,36.65
2022-12-18T16:58:31.811Z,33.33
2022-12-18T17:01:00.422Z,37.83
2022-12-18T17:03:27.846Z,37.47
2022-12-18T17:05:55.503Z,35.50
2022-12-18T17:08:23.140Z,33.28
2022-12-18T17:10:51.303Z,36.78
2022-12-18T17:13:26.002Z,38.53
2022-12-18T17:16:07.552Z,35.45
2022-12-18T17:18:36.627Z,35.00
2022-12-18T17:21:10.172Z,41.03
2022-12-18T17:23:39.235Z,38.55
2022-12-18T17:26:11.909Z,40.17
2022-12-18T17:28:41.561Z,34.85
2022-12-18T17:31:19.816Z,33.45
2022-12-18T17:33:50.945Z,32.97
2022-12-18T17:36:21.732Z,31.27
2022-12-18T17:38:57.782Z,28.88
2022-12-18T17:41:27.102Z,30.35
2022-12-18T17:43:58.533Z,31.60
2022-12-18T17:46:28.056Z,32.22
2022-12-18T17:49:00.297Z,31.80
2022-12-18T17:51:31.186Z,34.53
2022-12-18T17:53:58.600Z,34.50
2022-12-18T17:56:27.127Z,34.40
2022-12-18T17:58:54.759Z,34.03
2022-12-18T18:01:25.523Z,37.42
2022-12-18T18:03:56.222Z,34.15
2022-12-18T18:06:24.530Z,30.83
2022-12-18T18:08:52.214Z,35.78
2022-12-18T18:11:40.028Z,37.03
2022-12-18T18:14:13.304Z,37.75
2022-12-18T18:16:43.422Z,34.88
2022-12-18T18:19:16.841Z,33.50
2022-12-18T18:21:47.751Z,34.65
2022-12-18T18:24:18.485Z,38.67
2022-12-18T18:26:47.310Z,38.35
2022-12-18T18:29:17.076Z,39.90
2022-12-18T18:31:45.245Z,33.97
2022-12-18T18:34:24.031Z,39.65
2022-12-18T18:36:52.054Z,37.45
2022-12-18T18:39:20.197Z,38.83
2022-12-18T18:41:48.718Z,37.65
2022-12-18T18:44:18.355Z,38.60
2022-12-18T18:46:46.500Z,39.33
2022-12-18T18:49:15.031Z,40.03
2022-12-18T18:51:43.151Z,55.17
2022-12-18T18:54:10.442Z,65.15
2022-12-18T18:57:11.945Z,62.53
2022-12-18T18:59:31.298Z,54.42
2022-12-18T19:02:04.014Z,50.92
2022-12-18T19:04:34.188Z,52.83
2022-12-18T19:07:02.555Z,53.50
2022-12-18T19:09:29.945Z,53.55
2022-12-18T19:12:16.563Z,49.22
2022-12-18T19:14:44.820Z,48.97
2022-12-18T19:17:12.580Z,48.88
2022-12-18T19:19:40.360Z,55.38
2022-12-18T19:22:08.176Z,55.55
2022-12-18T19:24:35.892Z,52.80
2022-12-18T19:27:03.640Z,52.13
2022-12-18T19:29:32.068Z,52.85
2022-12-18T19:32:00.594Z,49.85
2022-12-18T19:34:28.218Z,53.65
2022-12-18T19:36:59.951Z,59.83
2022-12-18T19:39:27.760Z,70.22
2022-12-18T19:41:55.357Z,56.95
2022-12-18T19:44:22.802Z,54.28
2022-12-18T19:46:52.076Z,53.40
2022-12-18T19:49:22.437Z,51.95
2022-12-18T19:51:50.558Z,50.00
2022-12-18T19:54:18.199Z,61.03
2022-12-18T19:56:46.292Z,49.55
2022-12-18T19:59:14.227Z,56.97
2022-12-18T20:01:42.290Z,52.80
2022-12-18T20:04:09.747Z,62.42
2022-12-18T20:06:51.384Z,64.20
2022-12-18T20:09:19.565Z,56.83
2022-12-18T20:11:48.822Z,51.03
2022-12-18T20:14:23.061Z,57.55
2022-12-18T20:16:52.636Z,46.90
2022-12-18T20:19:21.776Z,54.38
2022-12-18T20:21:49.955Z,51.40
2022-12-18T20:24:17.220Z,56.03
2022-12-18T20:26:44.908Z,56.67
2022-12-18T20:29:12.186Z,59.65
2022-12-18T20:31:40.404Z,52.65
2022-12-18T20:34:08.373Z,55.42
2022-12-18T20:36:37.745Z,56.72
2022-12-18T20:39:07.607Z,60.30
2022-12-18T20:41:39.086Z,77.57
2022-12-18T20:44:16.702Z,73.95
2022-12-18T20:46:54.593Z,81.82
2022-12-18T20:49:23.003Z,76.13
2022-12-18T20:51:52.599Z,48.88
2022-12-18T20:54:21.251Z,68.22
2022-12-18T20:56:49.141Z,71.93
2022-12-18T20:59:16.823Z,66.95
2022-12-18T21:01:45.261Z,68.57
2022-12-18T21:04:18.141Z,51.08
2022-12-18T21:06:59.070Z,58.38
2022-12-18T21:09:38.131Z,55.97
2022-12-18T21:12:35.160Z,61.90
2022-12-18T21:15:10.620Z,54.33
2022-12-18T21:17:44.431Z,57.13
2022-12-18T21:20:17.271Z,43.33
2022-12-18T21:22:45.675Z,50.30
2022-12-18T21:25:12.831Z,56.72
2022-12-18T21:27:40.512Z,61.83
2022-12-18T21:30:08.408Z,67.60
2022-12-18T21:32:36.227Z,54.85
2022-12-18T21:35:04.062Z,56.60
2022-12-18T21:37:31.797Z,53.97
2022-12-18T21:39:59.063Z,56.05
2022-12-18T21:42:45.302Z,59.88
2022-12-18T21:45:12.563Z,48.15
2022-12-18T21:47:40.236Z,52.35
2022-12-18T21:50:07.938Z,53.83
2022-12-18T21:52:35.545Z,50.13
2022-12-18T21:55:09.152Z,46.88
2022-12-18T21:57:40.249Z,56.35
2022-12-18T22:00:16.866Z,53.65
2022-12-18T22:02:47.258Z,55.80
2022-12-18T22:05:14.661Z,51.90
2022-12-18T22:07:42.312Z,53.28
2022-12-18T22:10:10.207Z,51.45
2022-12-18T22:12:43.394Z,61.88
2022-12-18T22:15:21.553Z,61.08
2022-12-18T22:17:57.554Z,57.30
2022-12-18T22:20:30.049Z,61.80
2022-12-18T22:22:58.418Z,51.92
2022-12-18T22:25:25.782Z,51.00
2022-12-18T22:28:13.062Z,62.95
2022-12-18T22:30:40.685Z,58.70
2022-12-18T22:33:08.352Z,58.25
2022-12-18T22:35:35.616Z,53.75
2022-12-18T22:38:03.603Z,58.58
2022-12-18T22:40:31.140Z,61.78
2022-12-18T22:42:58.732Z,63.30
2022-12-18T22:45:26.982Z,51.72
2022-12-18T22:47:54.837Z,56.30
2022-12-18T22:50:22.243Z,42.95
2022-12-18T22:52:49.778Z,47.60
2022-12-18T22:55:17.130Z,52.47
2022-12-18T22:57:48.987Z,58.38
2022-12-18T23:00:23.804Z,58.00
2022-12-18T23:03:00.201Z,54.70
2022-12-18T23:05:29.880Z,53.70
2022-12-18T23:07:57.762Z,48.33
2022-12-18T23:10:25.316Z,55.90
2022-12-18T23:12:52.824Z,56.92
2022-12-18T23:15:21.537Z,47.55
2022-12-18T23:18:00.027Z,43.95
2022-12-18T23:20:27.880Z,45.10
2022-12-18T23:22:55.553Z,34.00
2022-12-18T23:25:23.354Z,37.10
2022-12-18T23:27:51.147Z,35.03
2022-12-18T23:30:18.465Z,40.40
2022-12-18T23:32:45.954Z,34.53
2022-12-18T23:35:14.328Z,33.90
2022-12-18T23:38:00.474Z,33.47
2022-12-18T23:40:29.693Z,33.72
2022-12-18T23:42:57.393Z,40.38
2022-12-18T23:45:24.579Z,40.60
2022-12-18T23:47:52.093Z,34.88
2022-12-18T23:50:19.464Z,33.65
2022-12-18T23:52:51.456Z,39.30
2022-12-18T23:55:19.122Z,40.35
2022-12-18T23:57:46.659Z,42.70
